Cape Saint Claire, Maryland
Current Conditions -  °F | °C
As of 8:54 AM on Friday 31 Oct 2014 (Local Time) from KNAK Reporting Station
Overcast Overcast  
Wind Chill: 46°   Ceiling: 6000
Heat Index: 49°   Visibility: 10mi
Dew Point: 38°   Wind: 7mph
Humidity: 66%   Direction: 60°ENE
Pressure: 30"   Gusts: NA
Location:  38.9915°N, 76.5325°W
Report Text: KNAK 311254Z AUTO 06006KT 10SM OVC060 09/03 A3000 RMK AO2 SLP161 T00940033
Loading
Personal Weather Stations






























Interactive Weather Map
Tropical Storm Tracking
New forecast layout! Learn more

10-Day Weather Forecast

Advertisements
Track Severe Weather on mobile